Impacts METAR Board
IDs:

KDEN - Denver Intl, CO, US

Updated at: 2100 UTC 24 Apr 2018
Potential Impact None Slight Moderate High
Time 24/09Z 24/10Z 24/11Z 24/12Z 24/13Z 24/14Z 24/15Z 24/16Z 24/17Z 24/18Z 24/19Z 24/20Z 24/21Z
Temp35 33 33 32 32 33 33 35 37 38 38 39 39
Dewpt32 31 31 30 30 30 30 30 30 30 29 30 31
Altim30.32 30.33 30.35 30.38 30.40 30.41 30.43 30.43 30.43 30.42 30.41 30.40 30.39
VIS4 3 3 1 3 10 8 10 10 10 10 9 10
CIG9 5 7 5 7 40 14 14 24 27 30 29 41
CoverOVCOVCOVCOVCOVCOVCOVCOVCOVCOVCOVCOVCOVC
FltCatIFRIFRIFRIFRIFRVFRMVFRMVFRMVFRMVFRMVFRMVFRVFR
WX-RA -SN BR-SN BR-SN BR-SN BR-SN BR----------------
WDir302030101030101010103020350
WSpd11 8 11 12 10 7 7 14 15 14 12 11 6
WGst-- -- -- -- -- -- -- -- -- -- -- -- --
Raw hourly METARs
KDEN 240853Z 03011KT 4SM -RASN BR OVC009 02/00 A3032 RMK AO2 RAB11SNB11 CIG 005V011 SLP231 P0000 60000 T00170000 50004
KDEN 240953Z 02008KT 3SM -SN BR OVC005 01/M01 A3033 RMK AO2 RAE06 CIG 003V008 SLP239 P0004 T00061006
KDEN 241053Z 03011KT 3SM -SN BR OVC007 01/M01 A3035 RMK AO2 CIG 005V009 SLP243 P0000 T00061006
KDEN 241205Z 01012KT 1SM R35L/P6000FT -SN BR OVC005 00/M01 A3038 RMK AO2 P0001 T00001011
KDEN 241253Z 01010KT 3SM -SN BR BKN007 OVC013 00/M01 A3040 RMK AO2 CIG 003V011 SLP268 P0002 T00001011
KDEN 241353Z 03007KT 10SM FEW009 OVC040 01/M01 A3041 RMK AO2 SNE00 SLP274 P0000 T00061011
KDEN 241453Z 01007KT 8SM OVC014 01/M01 A3043 RMK AO2 SLP288 60002 T00061011 53009
KDEN 241553Z 01014KT 10SM OVC014 02/M01 A3043 RMK AO2 SLP296 T00171011
KDEN 241653Z 01015KT 10SM SCT017 BKN024 OVC028 03/M01 A3043 RMK AO2 SLP301 T00281011
KDEN 241753Z 01014KT 10SM FEW020 BKN027 OVC047 03/M01 A3042 RMK AO2 SLP300 60002 T00331011 10033 20000 58000
KDEN 241903Z 03012KT 10SM FEW021 BKN030 OVC034 03/M02 A3041 RMK AO2 T00331017
KDEN 241953Z 02011KT 9SM SCT019 BKN029 OVC036 04/M01 A3040 RMK AO2 SNB08E50 SLP295 P0000 T00391011
KDEN 242053Z 35006KT 10SM FEW015 BKN041 OVC055 04/M01 A3039 RMK AO2 SNB05E25 SLP294 P0001 60001 T00391006 56009



Page loaded:  21:05 UTC  |   02:05 PM Pacific  |   03:05 PM Mountain  |   04:05 PM Central  |   05:05 PM Eastern

 

ADVISORIES

FORECASTS

FORECASTS

OBSERVATIONS

USER TOOLS

ABOUT US